createdAt,value
2024-01-04T00:01:27.661Z,85.20
2024-01-04T00:03:54.581Z,85.70
2024-01-04T00:06:21.888Z,86.00
2024-01-04T00:08:49.047Z,86.40
2024-01-04T00:11:16.013Z,86.70
2024-01-04T00:13:42.820Z,86.90
2024-01-04T00:16:12.056Z,87.10
2024-01-04T00:18:40.281Z,87.50
2024-01-04T00:21:07.394Z,87.70
2024-01-04T00:23:36.050Z,88.10
2024-01-04T00:26:03.180Z,88.20
2024-01-04T00:28:30.489Z,88.50
2024-01-04T00:30:57.291Z,88.50
2024-01-04T00:33:24.158Z,88.50
2024-01-04T00:35:51.301Z,88.50
2024-01-04T00:38:18.263Z,88.70
2024-01-04T00:40:46.048Z,88.70
2024-01-04T00:43:12.958Z,88.80
2024-01-04T00:45:40.373Z,88.80
2024-01-04T00:48:07.745Z,88.60
2024-01-04T00:50:34.729Z,88.70
2024-01-04T00:53:09.231Z,88.70
2024-01-04T00:55:37.631Z,88.50
2024-01-04T00:58:05.138Z,88.60
2024-01-04T01:00:32.493Z,88.50
2024-01-04T01:03:00.030Z,88.80
2024-01-04T01:05:26.876Z,88.90
2024-01-04T01:07:53.719Z,88.50
2024-01-04T01:10:20.787Z,88.30
2024-01-04T01:12:48.011Z,88.20
2024-01-04T01:15:14.980Z,87.90
2024-01-04T01:17:42.036Z,88.10
2024-01-04T01:20:09.602Z,88.20
2024-01-04T01:22:36.363Z,88.30
2024-01-04T01:25:03.614Z,88.40
2024-01-04T01:27:30.422Z,88.30
2024-01-04T01:29:57.597Z,88.40
2024-01-04T01:32:24.364Z,88.30
2024-01-04T01:34:51.150Z,88.50
2024-01-04T01:37:18.204Z,88.30
2024-01-04T01:39:45.092Z,88.20
2024-01-04T01:42:12.143Z,88.30
2024-01-04T01:44:39.059Z,88.70
2024-01-04T01:47:06.351Z,88.90
2024-01-04T01:49:33.697Z,89.20
2024-01-04T01:52:00.804Z,89.30
2024-01-04T01:54:28.154Z,89.30
2024-01-04T01:56:55.786Z,89.30
2024-01-04T01:59:27.468Z,89.10
2024-01-04T02:01:55.150Z,88.90
2024-01-04T02:04:22.498Z,89.00
2024-01-04T02:06:49.375Z,89.00
2024-01-04T02:09:16.634Z,88.30
2024-01-04T02:11:47.354Z,88.60
2024-01-04T02:14:17.771Z,88.70
2024-01-04T02:16:44.596Z,88.90
2024-01-04T02:19:13.500Z,88.80
2024-01-04T02:21:41.731Z,88.60
2024-01-04T02:24:08.665Z,88.70
2024-01-04T02:26:35.679Z,88.00
2024-01-04T02:29:02.823Z,88.10
2024-01-04T02:31:30.256Z,88.00
2024-01-04T02:33:57.270Z,88.30
2024-01-04T02:36:26.329Z,87.80
2024-01-04T02:38:53.219Z,87.70
2024-01-04T02:41:20.879Z,87.50
2024-01-04T02:43:47.668Z,87.30
2024-01-04T02:46:14.581Z,87.60
2024-01-04T02:48:42.309Z,87.90
2024-01-04T02:51:09.897Z,87.60
2024-01-04T02:53:37.149Z,87.80
2024-01-04T02:56:08.106Z,87.80
2024-01-04T02:58:35.355Z,87.40
2024-01-04T03:01:02.371Z,87.30
2024-01-04T03:03:29.317Z,87.40
2024-01-04T03:05:56.151Z,86.90
2024-01-04T03:08:22.959Z,87.30
2024-01-04T03:10:49.768Z,86.80
2024-01-04T03:13:16.567Z,86.60
2024-01-04T03:15:43.999Z,87.10
2024-01-04T03:18:10.892Z,86.70
2024-01-04T03:20:38.796Z,86.50
2024-01-04T03:23:05.789Z,86.60
2024-01-04T03:25:32.788Z,86.60
2024-01-04T03:27:59.654Z,86.30
2024-01-04T03:30:26.627Z,86.70
2024-01-04T03:32:53.755Z,86.20
2024-01-04T03:35:20.562Z,86.40
2024-01-04T03:37:47.713Z,85.90
2024-01-04T03:40:14.664Z,85.30
2024-01-04T03:42:41.487Z,84.80
2024-01-04T03:45:08.928Z,85.30
2024-01-04T03:47:35.959Z,85.40
2024-01-04T03:50:04.343Z,85.20
2024-01-04T03:52:31.275Z,85.40
2024-01-04T03:54:58.165Z,85.50
2024-01-04T03:57:25.234Z,85.00
2024-01-04T03:59:52.303Z,84.60
2024-01-04T04:02:19.298Z,84.50
2024-01-04T04:04:46.185Z,84.60
2024-01-04T04:07:13.306Z,85.00
2024-01-04T04:09:40.763Z,84.70
2024-01-04T04:12:07.934Z,84.60
2024-01-04T04:14:35.980Z,84.40
2024-01-04T04:17:03.309Z,84.60
2024-01-04T04:19:30.752Z,84.40
2024-01-04T04:21:57.550Z,84.50
2024-01-04T04:24:25.318Z,84.90
2024-01-04T04:26:52.755Z,85.10
2024-01-04T04:29:19.648Z,85.40
2024-01-04T04:31:49.633Z,85.40
2024-01-04T04:34:16.656Z,86.00
2024-01-04T04:36:43.635Z,86.00
2024-01-04T04:39:10.601Z,85.80
2024-01-04T04:41:39.460Z,85.80
2024-01-04T04:44:06.300Z,86.40
2024-01-04T04:46:33.129Z,86.40
2024-01-04T04:49:02.497Z,86.30
2024-01-04T04:51:29.657Z,86.30
2024-01-04T04:53:57.248Z,86.50
2024-01-04T04:56:24.009Z,86.90
2024-01-04T04:58:50.744Z,86.80
2024-01-04T05:01:18.120Z,86.90
2024-01-04T05:03:48.335Z,87.00
2024-01-04T05:06:16.243Z,87.40
2024-01-04T05:08:45.918Z,87.60
2024-01-04T05:11:12.808Z,87.80
2024-01-04T05:13:39.659Z,88.10
2024-01-04T05:16:07.885Z,88.10
2024-01-04T05:18:35.284Z,88.00
2024-01-04T05:21:02.119Z,87.80
2024-01-04T05:23:30.819Z,87.80
2024-01-04T05:25:57.590Z,87.80
2024-01-04T05:28:27.321Z,88.20
2024-01-04T05:30:55.600Z,88.20
2024-01-04T05:33:22.703Z,88.00
2024-01-04T05:35:51.638Z,88.10
2024-01-04T05:38:18.700Z,88.30
2024-01-04T05:40:45.516Z,88.30
2024-01-04T05:43:12.407Z,88.60
2024-01-04T05:45:39.158Z,88.60
2024-01-04T05:48:06.353Z,88.50
2024-01-04T05:50:33.323Z,88.70
2024-01-04T05:53:00.016Z,88.80
2024-01-04T05:55:26.769Z,88.60
2024-01-04T05:57:53.555Z,88.70
2024-01-04T06:00:21.694Z,88.50
2024-01-04T06:02:49.720Z,88.80
2024-01-04T06:05:16.766Z,88.90
2024-01-04T06:07:43.805Z,88.80
2024-01-04T06:10:10.666Z,88.40
2024-01-04T06:12:37.648Z,88.80
2024-01-04T06:15:04.936Z,88.70
2024-01-04T06:17:32.410Z,88.50
2024-01-04T06:19:59.273Z,88.70
2024-01-04T06:22:26.357Z,88.80
2024-01-04T06:24:53.248Z,89.20
2024-01-04T06:27:20.187Z,89.40
2024-01-04T06:29:47.615Z,89.50
2024-01-04T06:32:14.475Z,89.40
2024-01-04T06:34:41.592Z,89.30
2024-01-04T06:37:08.488Z,89.40
2024-01-04T06:39:35.261Z,89.60
2024-01-04T06:42:06.225Z,89.30
2024-01-04T06:44:41.403Z,89.70
2024-01-04T06:47:11.411Z,89.80
2024-01-04T06:49:38.258Z,89.50
2024-01-04T06:52:05.300Z,89.50
2024-01-04T06:54:32.944Z,89.20
2024-01-04T06:56:59.859Z,89.60
2024-01-04T06:59:27.822Z,89.10
2024-01-04T07:01:54.581Z,88.70
2024-01-04T07:04:21.488Z,89.80
2024-01-04T07:06:48.298Z,89.30
2024-01-04T07:09:18.826Z,89.70
2024-01-04T07:11:45.797Z,89.70
2024-01-04T07:14:12.529Z,89.10
2024-01-04T07:16:46.490Z,89.70
2024-01-04T07:19:17.093Z,88.30
2024-01-04T07:21:44.248Z,88.70
2024-01-04T07:24:11.385Z,88.60
2024-01-04T07:26:38.600Z,89.10
2024-01-04T07:29:05.388Z,89.00
2024-01-04T07:31:32.818Z,89.30
2024-01-04T07:34:01.718Z,89.40
2024-01-04T07:36:28.791Z,88.70
2024-01-04T07:38:55.783Z,87.60
2024-01-04T07:41:22.620Z,88.20
2024-01-04T07:43:49.600Z,88.70
2024-01-04T07:46:16.543Z,89.00
2024-01-04T07:48:43.522Z,88.90
2024-01-04T07:51:10.518Z,88.10
2024-01-04T07:53:37.442Z,87.90
2024-01-04T07:56:04.514Z,88.50
2024-01-04T07:58:31.880Z,89.20
2024-01-04T08:00:59.872Z,89.80
2024-01-04T08:03:29.548Z,89.90
2024-01-04T08:05:56.938Z,90.10
2024-01-04T08:08:23.781Z,90.60
2024-01-04T08:10:50.585Z,91.20
2024-01-04T08:13:17.815Z,91.20
2024-01-04T08:15:44.869Z,91.30
2024-01-04T08:18:11.866Z,91.40
2024-01-04T08:20:39.294Z,91.40
2024-01-04T08:23:06.162Z,91.70
2024-01-04T08:25:32.945Z,91.50
2024-01-04T08:27:59.848Z,91.70
2024-01-04T08:30:26.853Z,91.90
2024-01-04T08:32:54.724Z,91.70
2024-01-04T08:35:21.716Z,91.40
2024-01-04T08:37:49.057Z,91.20
2024-01-04T08:40:16.239Z,91.40
2024-01-04T08:42:43.175Z,91.70
2024-01-04T08:45:11.608Z,91.90
2024-01-04T08:47:39.235Z,91.70
2024-01-04T08:50:06.518Z,91.60
2024-01-04T08:52:34.484Z,91.10
2024-01-04T08:55:01.511Z,91.20
2024-01-04T08:57:28.482Z,91.20
2024-01-04T08:59:55.463Z,91.10
2024-01-04T09:02:22.662Z,91.00
2024-01-04T09:04:49.722Z,91.10
2024-01-04T09:07:16.825Z,91.20
2024-01-04T09:09:43.642Z,90.70
2024-01-04T09:12:10.442Z,90.50
2024-01-04T09:14:38.582Z,90.30
2024-01-04T09:17:05.654Z,90.10
2024-01-04T09:19:32.725Z,90.60
2024-01-04T09:21:59.534Z,91.20
2024-01-04T09:24:26.345Z,91.10
2024-01-04T09:26:53.717Z,91.80
2024-01-04T09:29:20.715Z,91.80
2024-01-04T09:31:47.669Z,92.00
2024-01-04T09:34:14.769Z,92.30
2024-01-04T09:36:41.827Z,92.30
2024-01-04T09:39:08.991Z,92.30
2024-01-04T09:41:46.749Z,91.90
2024-01-04T09:44:14.791Z,91.70
2024-01-04T09:46:43.466Z,91.70
2024-01-04T09:49:12.551Z,91.80
2024-01-04T09:51:40.985Z,91.80
2024-01-04T09:54:12.259Z,92.10
2024-01-04T09:56:44.111Z,92.20
2024-01-04T09:59:14.277Z,92.30
2024-01-04T10:01:41.427Z,92.20
2024-01-04T10:04:17.654Z,92.10
2024-01-04T10:06:47.168Z,91.80
2024-01-04T10:09:27.929Z,91.70
2024-01-04T10:12:12.210Z,91.60
2024-01-04T10:14:39.703Z,91.60
2024-01-04T10:17:06.635Z,91.70
2024-01-04T10:19:34.524Z,91.90
2024-01-04T10:22:06.052Z,91.40
2024-01-04T10:24:39.422Z,91.00
2024-01-04T10:27:09.372Z,91.20
2024-01-04T10:29:38.543Z,91.40
2024-01-04T10:32:09.701Z,91.50
2024-01-04T10:34:37.501Z,90.70
2024-01-04T10:37:15.477Z,90.40
2024-01-04T10:39:47.331Z,90.40
2024-01-04T10:42:17.877Z,90.10
2024-01-04T10:44:47.693Z,90.20
2024-01-04T10:47:16.026Z,89.40
2024-01-04T10:49:46.903Z,89.10
2024-01-04T10:52:16.742Z,89.20
2024-01-04T10:54:45.095Z,89.40
2024-01-04T10:57:14.534Z,89.50
2024-01-04T10:59:45.129Z,89.60
2024-01-04T11:02:15.063Z,89.40
2024-01-04T11:04:42.915Z,89.50
2024-01-04T11:07:10.480Z,89.10
2024-01-04T11:09:38.010Z,89.40
2024-01-04T11:12:06.568Z,89.60
2024-01-04T11:14:34.762Z,89.60
2024-01-04T11:17:42.443Z,89.30
2024-01-04T11:25:02.795Z,89.70
2024-01-04T11:27:30.552Z,89.50
2024-01-04T11:29:57.842Z,89.60
2024-01-04T11:32:25.420Z,89.30
2024-01-04T11:34:52.388Z,89.10
2024-01-04T11:37:22.055Z,89.40
2024-01-04T11:39:56.114Z,89.80
2024-01-04T11:42:38.350Z,89.70
2024-01-04T11:45:16.841Z,89.50
2024-01-04T11:47:48.600Z,88.20
2024-01-04T11:50:31.403Z,88.30
2024-01-04T11:53:07.355Z,88.30
2024-01-04T11:55:37.538Z,87.40
2024-01-04T11:58:15.310Z,87.40
2024-01-04T12:00:49.087Z,87.00
2024-01-04T12:03:17.614Z,86.10
2024-01-04T12:05:55.344Z,86.40
2024-01-04T12:08:29.816Z,86.70
2024-01-04T12:11:02.144Z,86.90
2024-01-04T12:13:28.934Z,86.30
2024-01-04T12:15:56.614Z,86.20
2024-01-04T12:18:26.564Z,86.40
2024-01-04T12:21:03.771Z,86.30
2024-01-04T12:23:39.511Z,86.50
2024-01-04T12:26:07.999Z,86.40
2024-01-04T12:28:35.782Z,86.20
2024-01-04T12:31:04.669Z,86.50
2024-01-04T12:33:32.895Z,87.20
2024-01-04T12:36:01.657Z,86.70
2024-01-04T12:38:29.427Z,86.90
2024-01-04T12:40:56.715Z,86.70
2024-01-04T12:43:25.819Z,86.60
2024-01-04T12:46:05.612Z,86.60
2024-01-04T12:48:33.248Z,86.70
2024-01-04T12:51:12.573Z,86.50
2024-01-04T12:53:41.997Z,86.10
2024-01-04T12:56:15.200Z,86.40
2024-01-04T12:58:43.468Z,86.40
2024-01-04T13:01:10.436Z,86.60
2024-01-04T13:03:37.862Z,86.70
2024-01-04T13:06:05.596Z,87.40
2024-01-04T13:08:32.499Z,87.50
2024-01-04T13:10:59.335Z,87.50
2024-01-04T13:13:30.242Z,87.80
2024-01-04T13:15:59.054Z,86.80
2024-01-04T13:18:26.546Z,86.40
2024-01-04T13:20:53.658Z,85.90
2024-01-04T13:23:20.499Z,85.40
2024-01-04T13:25:47.286Z,85.10
2024-01-04T13:28:14.138Z,84.90
2024-01-04T13:30:41.972Z,85.40
2024-01-04T13:33:09.212Z,84.80
2024-01-04T13:35:37.939Z,84.50
2024-01-04T13:38:08.730Z,85.00
2024-01-04T13:40:36.792Z,84.90
2024-01-04T13:43:05.255Z,83.80
2024-01-04T13:52:36.227Z,83.60
2024-01-04T13:54:27.382Z,83.20
2024-01-04T14:04:26.360Z,83.30
2024-01-04T14:06:53.107Z,83.90
2024-01-04T14:09:19.999Z,83.30
2024-01-04T14:11:46.802Z,83.90
2024-01-04T14:14:19.852Z,83.70
2024-01-04T14:16:47.988Z,83.90
2024-01-04T14:19:14.930Z,84.30
2024-01-04T14:21:41.875Z,84.20
2024-01-04T14:24:09.201Z,84.70
2024-01-04T14:26:36.035Z,85.00
2024-01-04T14:29:03.389Z,84.70
2024-01-04T14:31:30.631Z,85.10
2024-01-04T14:33:58.431Z,85.50
2024-01-04T14:36:25.349Z,86.10
2024-01-04T14:38:52.267Z,86.40
2024-01-04T14:41:19.878Z,86.80
2024-01-04T14:43:47.159Z,86.80
2024-01-04T14:46:25.225Z,87.40
2024-01-04T14:48:52.461Z,87.60
2024-01-04T14:51:21.388Z,87.60
2024-01-04T14:53:49.043Z,88.00
2024-01-04T14:56:19.302Z,88.30
2024-01-04T14:58:50.631Z,88.50
2024-01-04T15:01:21.899Z,88.80
2024-01-04T15:03:54.359Z,89.10
2024-01-04T15:06:21.837Z,89.10
2024-01-04T15:08:50.245Z,89.60
2024-01-04T15:11:18.109Z,89.90
2024-01-04T15:13:45.237Z,90.20
2024-01-04T15:16:12.255Z,90.40
2024-01-04T15:18:39.404Z,90.50
2024-01-04T15:21:06.651Z,90.60
2024-01-04T15:23:35.077Z,90.60
2024-01-04T15:26:02.059Z,90.60
2024-01-04T15:28:29.336Z,90.60
2024-01-04T15:30:56.287Z,90.60
2024-01-04T15:33:23.921Z,90.60
2024-01-04T15:35:51.792Z,91.90
2024-01-04T15:38:18.873Z,93.80
2024-01-04T15:40:47.258Z,93.40
2024-01-04T15:43:14.133Z,93.30
2024-01-04T15:45:41.509Z,93.10
2024-01-04T15:48:08.483Z,93.90
2024-01-04T15:50:35.337Z,93.50
2024-01-04T15:53:02.120Z,93.80
2024-01-04T15:55:28.862Z,93.50
2024-01-04T15:57:55.710Z,93.80
2024-01-04T16:00:25.639Z,93.40
2024-01-04T16:02:53.069Z,92.50
2024-01-04T16:05:20.018Z,91.80
2024-01-04T16:07:50.391Z,91.50
2024-01-04T16:10:17.646Z,90.10
2024-01-04T16:12:44.729Z,89.70
2024-01-04T16:15:11.703Z,88.30
2024-01-04T16:17:38.574Z,88.30
2024-01-04T16:20:06.483Z,87.40
2024-01-04T16:22:33.725Z,87.10
2024-01-04T16:25:01.246Z,86.90
2024-01-04T16:27:28.178Z,86.60
2024-01-04T16:29:55.597Z,86.60
2024-01-04T16:32:22.446Z,85.90
2024-01-04T16:34:49.390Z,85.80
2024-01-04T16:37:16.162Z,86.10
2024-01-04T16:39:42.971Z,86.20
2024-01-04T16:42:09.926Z,86.00
2024-01-04T16:44:38.327Z,86.00
2024-01-04T16:47:08.011Z,85.70
2024-01-04T16:49:36.187Z,86.50
2024-01-04T16:52:14.028Z,85.30
2024-01-04T16:54:41.138Z,85.70
2024-01-04T16:57:09.745Z,86.20
2024-01-04T16:59:36.664Z,86.90
2024-01-04T17:02:04.630Z,86.90
2024-01-04T17:04:31.580Z,86.90
2024-01-04T17:06:58.633Z,87.10
2024-01-04T17:09:26.761Z,87.20
2024-01-04T17:11:54.308Z,88.10
2024-01-04T17:14:23.975Z,87.20
2024-01-04T17:16:53.212Z,88.50
2024-01-04T17:19:20.083Z,87.30
2024-01-04T17:21:46.989Z,87.60
2024-01-04T17:24:13.855Z,87.80
2024-01-04T17:26:40.797Z,88.20
2024-01-04T17:29:07.543Z,87.30
2024-01-04T17:31:35.027Z,87.00
2024-01-04T17:34:02.356Z,87.40
2024-01-04T17:36:35.889Z,87.40
2024-01-04T17:39:09.859Z,87.70
2024-01-04T17:41:37.625Z,87.80
2024-01-04T17:44:05.269Z,88.10
2024-01-04T17:46:35.448Z,87.80
2024-01-04T17:49:02.478Z,88.00
2024-01-04T17:51:30.738Z,88.30
2024-01-04T17:53:59.090Z,88.60
2024-01-04T17:56:25.936Z,89.10
2024-01-04T17:58:53.151Z,88.60
2024-01-04T18:01:20.595Z,88.90
2024-01-04T18:03:49.752Z,88.50
2024-01-04T18:06:19.661Z,88.70
2024-01-04T18:08:47.157Z,88.50
2024-01-04T18:11:14.156Z,88.80
2024-01-04T18:13:42.395Z,88.40
2024-01-04T18:16:09.388Z,88.80
2024-01-04T18:18:36.831Z,88.30
2024-01-04T18:21:04.097Z,88.90
2024-01-04T18:23:30.774Z,89.20
2024-01-04T18:25:58.110Z,89.00
2024-01-04T18:28:27.499Z,89.10
2024-01-04T18:30:54.459Z,89.80
2024-01-04T18:33:21.522Z,89.60
2024-01-04T18:35:51.642Z,89.40
2024-01-04T18:38:18.675Z,90.10
2024-01-04T18:40:45.419Z,89.90
2024-01-04T18:43:27.512Z,90.30
2024-01-04T18:45:57.322Z,89.40
2024-01-04T18:48:24.743Z,89.80
2024-01-04T18:50:51.759Z,89.60
2024-01-04T18:53:18.728Z,89.90
2024-01-04T18:55:51.180Z,89.90
2024-01-04T18:58:18.351Z,90.10
2024-01-04T19:00:45.169Z,89.80
2024-01-04T19:03:12.065Z,90.00
2024-01-04T19:05:39.045Z,90.70
2024-01-04T19:08:06.415Z,90.90
2024-01-04T19:10:33.151Z,90.80
2024-01-04T19:12:59.880Z,91.40
2024-01-04T19:17:55.768Z,91.50
2024-01-04T19:20:22.944Z,91.60
2024-01-04T19:22:52.095Z,91.70
2024-01-04T19:25:20.002Z,91.30
2024-01-04T19:27:46.926Z,91.70
2024-01-04T19:30:14.254Z,91.90
2024-01-04T19:32:41.494Z,92.00
2024-01-04T19:35:08.647Z,92.10
2024-01-04T19:37:35.479Z,92.30
2024-01-04T19:40:02.465Z,92.60
2024-01-04T19:42:31.324Z,92.90
2024-01-04T19:44:58.188Z,93.00
2024-01-04T19:47:25.312Z,93.10
2024-01-04T19:49:52.312Z,93.00
2024-01-04T19:52:22.569Z,92.90
2024-01-04T19:54:49.532Z,93.10
2024-01-04T19:57:16.813Z,92.90
2024-01-04T19:59:43.601Z,92.50
2024-01-04T20:02:10.346Z,92.90
2024-01-04T20:04:37.195Z,92.90
2024-01-04T20:07:09.087Z,93.10
2024-01-04T20:09:36.242Z,93.20
2024-01-04T20:12:03.669Z,93.10
2024-01-04T20:14:30.787Z,92.80
2024-01-04T20:16:57.612Z,92.40
2024-01-04T20:19:24.519Z,92.30
2024-01-04T20:21:52.948Z,92.30
2024-01-04T20:24:21.311Z,91.80
2024-01-04T20:26:48.393Z,91.60
2024-01-04T20:29:18.044Z,91.80
2024-01-04T20:31:46.392Z,91.40
2024-01-04T20:34:13.937Z,91.80
2024-01-04T20:36:41.784Z,91.60
2024-01-04T20:39:08.939Z,91.40
2024-01-04T20:41:35.811Z,91.50
2024-01-04T20:44:02.744Z,91.50
2024-01-04T20:46:29.668Z,91.70
2024-01-04T20:48:57.269Z,91.30
2024-01-04T20:51:24.216Z,91.80
2024-01-04T20:53:51.375Z,91.60
2024-01-04T20:56:21.253Z,92.20
2024-01-04T20:58:52.723Z,91.50
2024-01-04T21:01:58.683Z,91.90
2024-01-04T21:04:47.285Z,92.00
2024-01-04T21:07:14.234Z,91.60
2024-01-04T21:09:41.040Z,91.50
2024-01-04T21:12:08.210Z,91.10
2024-01-04T21:14:36.003Z,91.40
2024-01-04T21:17:04.490Z,91.40
2024-01-04T21:19:34.694Z,91.70
2024-01-04T21:22:01.844Z,91.30
2024-01-04T21:24:28.848Z,91.30
2024-01-04T21:26:57.408Z,91.50
2024-01-04T21:29:24.186Z,90.80
2024-01-04T21:31:51.052Z,90.70
2024-01-04T21:34:18.446Z,90.10
2024-01-04T21:36:45.899Z,90.00
2024-01-04T21:39:13.124Z,90.00
2024-01-04T21:41:44.249Z,90.20
2024-01-04T21:44:11.040Z,89.90
2024-01-04T21:46:37.726Z,90.00
2024-01-04T21:49:04.574Z,90.10
2024-01-04T21:51:33.263Z,89.50
2024-01-04T21:54:00.315Z,90.00
2024-01-04T21:56:28.869Z,89.70
2024-01-04T21:58:56.049Z,89.70
2024-01-04T22:01:24.500Z,89.80
2024-01-04T22:03:51.776Z,89.70
2024-01-04T22:06:19.791Z,89.90
2024-01-04T22:08:46.889Z,89.60
2024-01-04T22:11:13.784Z,90.10
2024-01-04T22:13:40.683Z,90.10
2024-01-04T22:16:07.799Z,90.10
2024-01-04T22:18:36.439Z,90.00
2024-01-04T22:21:03.534Z,90.30
2024-01-04T22:23:30.365Z,90.30
2024-01-04T22:25:57.210Z,90.60
2024-01-04T22:28:24.317Z,90.50
2024-01-04T22:30:51.521Z,90.70
2024-01-04T22:33:18.626Z,90.60
2024-01-04T22:35:45.527Z,90.70
2024-01-04T22:38:12.976Z,90.60
2024-01-04T22:40:39.791Z,90.70
2024-01-04T22:43:06.622Z,90.50
2024-01-04T22:45:33.600Z,90.90
2024-01-04T22:48:01.035Z,91.00
2024-01-04T22:50:28.484Z,91.10
2024-01-04T22:52:55.212Z,91.50
2024-01-04T22:55:21.995Z,91.00
2024-01-04T22:57:50.097Z,91.40
2024-01-04T23:00:17.828Z,90.40
2024-01-04T23:02:44.983Z,90.30
2024-01-04T23:05:11.811Z,90.00
2024-01-04T23:07:39.496Z,90.30
2024-01-04T23:10:07.887Z,90.40
2024-01-04T23:12:36.174Z,90.70
2024-01-04T23:15:03.434Z,90.40
2024-01-04T23:17:30.756Z,90.40
2024-01-04T23:19:57.963Z,90.50
2024-01-04T23:22:26.615Z,90.70
2024-01-04T23:24:53.400Z,90.60
2024-01-04T23:27:20.160Z,90.70
2024-01-04T23:29:47.328Z,90.80
2024-01-04T23:32:14.039Z,90.90
2024-01-04T23:34:41.056Z,91.00
2024-01-04T23:37:07.892Z,90.90
2024-01-04T23:39:34.977Z,91.20
2024-01-04T23:42:01.973Z,91.30
2024-01-04T23:44:29.881Z,91.20
2024-01-04T23:46:57.148Z,91.10
2024-01-04T23:49:24.458Z,91.10
2024-01-04T23:51:51.354Z,91.10
2024-01-04T23:54:18.336Z,90.90
2024-01-04T23:56:45.423Z,90.80
2024-01-04T23:59:12.332Z,90.70
